AirNav   TITAN Aviation Fuels
 
 429 users online  

IN7 Cedar Lake Seaplane Base
Cedar Lake, Indiana, USA


FAA INFORMATION EFFECTIVE 22 APRIL 2021

Location

FAA Identifier: IN7
Lat/Long: 41-22-24.4600N 087-25-58.1200W
41-22.407667N 087-25.968667W
41.3734611,-87.4328111
(estimated)
Elevation: 692 ft. / 211 m (estimated)
From city: 1 mile NE of CEDAR LAKE, IN
Time zone: UTC -5 (UTC -6 during Standard Time)
Zip code: 46303

Seaplane Base Operations

Seaplane Base use: Open to the public
Activation date: 06/2020
Control tower: no
ARTCC: CHICAGO CENTER
FSS: TERRE HAUTE FLIGHT SERVICE STATION
Attendance: 
Segmented circle: no

Seaplane Base Communications

CTAF: 122.9
WX AWOS-3 at IGQ (11 nm NW): 119.275 (708-895-9526)
WX AWOS-AV at C56 (11 nm W): 119.125 (708-534-5256)
WX AWOS-3PT at GYY (15 nm N): 134.575 (219-944-0010)
WX ASOS at VPZ (20 nm E): 125.875 (219-531-1770)

Nearby radio navigation aids

VOR radial/distance  VOR name  Freq  Var
CGTr141/10.3CHICAGO HEIGHTS VORTAC114.2002E
EONr067/17.3PEOTONE VORTAC113.2002E
OXIr275/35.4KNOX VOR/DME115.6000E

Seaplane Base Services

Runway Information

Runway 18W/36W

Dimensions: 2675 x 100 ft. / 815 x 30 m
Surface: water
RUNWAY 18W  RUNWAY 36W
Latitude: 41-22.632333N41-22.191833N
Longitude: 087-25.969833W087-25.967500W
Elevation: 692.0 ft.692.0 ft.
Traffic pattern: leftleft

Seaplane Base Ownership and Management from official FAA records

Ownership: Publicly-owned
Owner: INDIANA DEPT OF NATURAL RESOURCES
402 WEST WASHINGTON ST RM W-255D
INDIANAPOLIS, IN 46204
Phone 317-232-0935
Manager: KENTON TURNER
402 W WASHINGTON ST
INDIANAPOLIS, IN 46204
Phone 317-232-0935

Seaplane Base Operational Statistics

Aircraft based on the field: 4
Single engine airplanes: 1
Multi engine airplanes: 1
Helicopters: 1
Gliders airplanes: 1
    

Instrument Procedures

There are no published instrument procedures at IN7.

Some nearby airports with instrument procedures:

05C - Griffith-Merrillville Airport (9 nm N)
KIGQ - Lansing Municipal Airport (11 nm NW)
C56 - Bult Field Airport (11 nm W)
3HO - Hobart Sky Ranch Airport (13 nm NE)
KGYY - Gary/Chicago International Airport (15 nm N)
KVPZ - Porter County Regional Airport (20 nm E)
 
Loc | Ops | Rwys | IFR | FBO | Links
Com | Nav | Svcs | Stats | Notes
Aerial photo
No photo
 
Airport distance calculator
Flying to Cedar Lake Seaplane Base? Find the distance to fly.

From to IN7

Sunrise and sunset
Times for 15-May-2021
 Local
(UTC-5)
 Zulu
(UTC)
Morning civil twilight05:0010:00
Sunrise05:3210:32
Sunset20:0001:00
Evening civil twilight20:3201:32

Current date and time
Zulu (UTC)  15-May-2021 09:17:46
Local (UTC-5)  15-May-2021 04:17:46
 
METAR
KIGQ 
11nm NW 
150855Z AUTO 00000KT 10SM CLR 10/02 A3022 RMK AO2 T01040019
KGYY 
15nm N 
150855Z AUTO 16003KT 10SM CLR 11/03 A3022 RMK AO2 T01080032
KVPZ 
20nm E 
150856Z AUTO 08003KT 10SM CLR 08/03 A3023 RMK AO2 SLP238 T00780028 56005
TAF
KGYY 
15nm N 
150520Z 1506/1606 16004KT P6SM SCT070 BKN120 FM151300 19009KT P6SM OVC070 FM151700 19011G18KT P6SM -SHRA SCT035 OVC050 TEMPO 1519/1523 5SM -SHRA BKN035 FM160200 18006KT P6SM SCT020 BKN030
NOTAMs
Click for the latest NOTAMs
NOTAMs are issued by the DoD/FAA and will open in a separate window not controlled by AirNav.

 

 
 

Would you like to see your business listed on this page?

 If your business provides an interesting product or service to pilots, flight crews, aircraft, or users of the Cedar Lake Seaplane Base, you should consider listing it here.  To start the listing process, click on the button below
 
Add a business
 

Other Pages about Cedar Lake Seaplane Base

Update a link
 
Copyright © AirNav, LLC. All rights reserved. Privacy Policy  Contact